Time;durP1;ratioP1;P1;durP2;ratioP2;P2;SDS_P1;SDS_P2;PMS_P1;PMS_P2;Temp;Humidity;BMP_temperature;BMP_pressure;BME280_temperature;BME280_humidity;BME280_pressure;Samples;Min_cycle;Max_cycle;Signal;HPM_P1;HPM_P2
2022/03/15 00:00:55;;;;;;;;;;;;;;;21.45;40.01;102347.06;5076836;28;4186;-51
2022/03/15 00:03:22;;;;;;;;;;;;;;;21.45;40.19;102353.56;5074341;28;4438;-49
2022/03/15 00:05:49;;;;;;;;;;;;;;;21.45;39.89;102347.06;5074727;28;4420;-50
2022/03/15 00:08:18;;;;;;;;;;;;;;;21.44;40.08;102357.06;5073157;28;4393;-51
2022/03/15 00:10:45;;;;;;;;;;;;;;;21.43;40.15;102361.31;5078010;28;6045;-53
2022/03/15 00:13:12;;;;;;;;;;;;;;;21.41;40.27;102358.31;5074173;28;4180;-50
2022/03/15 00:15:40;;;;;;;;;;;;;;;21.42;40.33;102359.84;5075461;28;4050;-51
2022/03/15 00:18:07;;;;;;;;;;;;;;;21.41;40.22;102349.66;5074604;28;4207;-53
2022/03/15 00:20:33;;;;;;;;;;;;;;;21.41;40.12;102358.31;5075104;28;4095;-50
2022/03/15 00:23:00;;;;;;;;;;;;;;;21.41;40.33;102346.78;5071325;28;4255;-51
2022/03/15 00:25:26;;;;;;;;;;;;;;;21.45;40.16;102347.06;5076534;28;4334;-51
2022/03/15 00:27:53;;;;;;;;;;;;;;;21.46;40.05;102345.66;5076049;28;3964;-53
2022/03/15 00:30:20;;;;;;;;;;;;;;;21.46;40.23;102339.91;5074006;28;5240;-52
2022/03/15 00:32:50;;;;;;;;;;;;;;;21.46;40.00;102337.03;5074403;28;4493;-52
2022/03/15 00:35:18;;;;;;;;;;;;;;;21.44;40.15;102345.53;5079534;28;4261;-50
2022/03/15 00:37:46;;;;;;;;;;;;;;;21.42;40.07;102349.06;5072503;28;4230;-53
2022/03/15 00:40:13;;;;;;;;;;;;;;;21.43;40.11;102350.53;5073486;28;4191;-53
2022/03/15 00:42:40;;;;;;;;;;;;;;;21.44;40.12;102351.28;5077148;28;5530;-53
2022/03/15 00:45:08;;;;;;;;;;;;;;;21.41;40.06;102353.28;5074287;28;4234;-48
2022/03/15 00:47:35;;;;;;;;;;;;;;;21.39;39.99;102349.50;5077868;27;4070;-50
2022/03/15 00:50:01;;;;;;;;;;;;;;;21.39;40.23;102349.50;5075920;28;4070;-52
2022/03/15 00:52:27;;;;;;;;;;;;;;;21.41;39.94;102341.00;5069511;28;4437;-50
2022/03/15 00:54:54;;;;;;;;;;;;;;;21.40;39.99;102340.28;5074150;28;4086;-50
2022/03/15 00:57:20;;;;;;;;;;;;;;;21.42;40.14;102342.53;5073162;28;4174;-50
2022/03/15 00:59:46;;;;;;;;;;;;;;;21.43;40.40;102326.75;5073881;28;4119;-52
2022/03/15 01:02:13;;;;;;;;;;;;;;;21.42;40.33;102331.75;5071671;28;4276;-50
2022/03/15 01:04:39;;;;;;;;;;;;;;;21.41;39.90;102338.13;5076277;28;4223;-52
2022/03/15 01:07:06;;;;;;;;;;;;;;;21.42;40.04;102342.53;5073322;28;4214;-49
2022/03/15 01:09:32;;;;;;;;;;;;;;;21.42;39.95;102337.53;5072771;28;4156;-50
2022/03/15 01:11:59;;;;;;;;;;;;;;;21.42;40.04;102336.78;5078267;28;4770;-49
2022/03/15 01:14:27;;;;;;;;;;;;;;;21.48;40.09;102328.50;5074108;28;4060;-52
2022/03/15 01:16:55;;;;;;;;;;;;;;;21.49;39.83;102335.78;5068785;28;4456;-50
2022/03/15 01:19:23;;;;;;;;;;;;;;;21.49;39.78;102324.25;5078751;28;4186;-49
2022/03/15 01:21:52;;;;;;;;;;;;;;;21.48;40.00;102329.25;5076843;28;4347;-51
2022/03/15 01:24:19;;;;;;;;;;;;;;;21.42;40.04;102333.91;5066631;28;4187;-50
2022/03/15 01:26:45;;;;;;;;;;;;;;;21.39;39.96;102332.22;5076412;28;4413;-50
2022/03/15 01:29:12;;;;;;;;;;;;;;;21.38;40.07;102336.47;5075682;28;4203;-53
2022/03/15 01:31:38;;;;;;;;;;;;;;;21.37;40.10;102332.06;5070927;28;5475;-53
2022/03/15 01:34:05;;;;;;;;;;;;;;;21.37;40.19;102340.72;5070929;28;4181;-50
2022/03/15 01:36:32;;;;;;;;;;;;;;;21.34;40.05;102343.47;5072884;28;4136;-52
2022/03/15 01:39:00;;;;;;;;;;;;;;;21.32;40.13;102328.91;5068613;28;4022;-52
2022/03/15 01:41:31;;;;;;;;;;;;;;;21.32;40.33;102343.31;5073905;28;4498;-50
2022/03/15 01:44:00;;;;;;;;;;;;;;;21.30;40.25;102348.97;5069745;28;4189;-49
2022/03/15 01:46:26;;;;;;;;;;;;;;;21.31;40.25;102355.50;5075268;28;4735;-53
2022/03/15 01:48:53;;;;;;;;;;;;;;;21.30;40.16;102360.50;5073027;28;5031;-51
2022/03/15 01:51:19;;;;;;;;;;;;;;;21.28;40.30;102351.72;5068282;28;4272;-51
2022/03/15 01:53:45;;;;;;;;;;;;;;;21.29;40.19;102358.22;5070792;28;4235;-53
2022/03/15 01:56:12;;;;;;;;;;;;;;;21.29;40.37;102358.97;5075015;28;4091;-49
2022/03/15 01:58:38;;;;;;;;;;;;;;;21.30;40.13;102360.50;5074294;28;4263;-51
2022/03/15 02:01:06;;;;;;;;;;;;;;;21.32;40.03;102372.13;5089873;28;4456;-49
2022/03/15 02:03:33;;;;;;;;;;;;;;;21.34;40.12;102372.28;5073706;28;4176;-49
2022/03/15 02:06:01;;;;;;;;;;;;;;;21.33;40.30;102375.78;5066913;28;4101;-49
2022/03/15 02:08:27;;;;;;;;;;;;;;;21.33;40.69;102370.78;5066399;28;5766;-50
2022/03/15 02:10:53;;;;;;;;;;;;;;;21.33;40.71;102370.78;5076067;28;4190;-50
2022/03/15 02:13:21;;;;;;;;;;;;;;;21.34;40.29;102372.28;5073494;28;4331;-53
2022/03/15 02:15:48;;;;;;;;;;;;;;;21.34;40.12;102366.50;5075418;28;4058;-49
2022/03/15 02:18:15;;;;;;;;;;;;;;;21.34;40.08;102369.41;5071846;28;4167;-51
2022/03/15 02:20:41;;;;;;;;;;;;;;;21.34;40.10;102374.41;5072442;28;4211;-53
2022/03/15 02:23:07;;;;;;;;;;;;;;;21.34;40.20;102366.50;5073914;28;5106;-51
2022/03/15 02:25:34;;;;;;;;;;;;;;;21.32;40.14;102363.50;5074438;28;5807;-52
2022/03/15 02:28:00;;;;;;;;;;;;;;;21.33;40.16;102376.53;5071088;28;4898;-56
2022/03/15 02:30:27;;;;;;;;;;;;;;;21.33;40.07;102375.78;5070490;28;4233;-51
2022/03/15 02:32:54;;;;;;;;;;;;;;;21.39;40.03;102372.56;5075256;28;4197;-49
2022/03/15 02:35:20;;;;;;;;;;;;;;;21.36;40.09;102374.56;5075045;28;4189;-51
2022/03/15 02:37:47;;;;;;;;;;;;;;;21.33;40.23;102382.31;5073866;28;4075;-50
2022/03/15 02:40:14;;;;;;;;;;;;;;;21.38;40.31;102382.59;5073260;28;4251;-49
2022/03/15 02:42:40;;;;;;;;;;;;;;;21.39;40.19;102379.06;5072569;28;4070;-49
2022/03/15 02:45:07;;;;;;;;;;;;;;;21.40;40.08;102385.59;5068728;28;4165;-48
2022/03/15 02:47:33;;;;;;;;;;;;;;;21.37;40.24;102381.06;5067222;28;4217;-50
2022/03/15 02:49:59;;;;;;;;;;;;;;;21.34;40.07;102380.91;5073626;28;4127;-51
2022/03/15 02:52:29;;;;;;;;;;;;;;;21.30;40.13;102372.03;5073064;28;5388;-48
2022/03/15 02:54:55;;;;;;;;;;;;;;;21.33;40.16;102376.53;5073446;28;4086;-48
2022/03/15 02:57:25;;;;;;;;;;;;;;;21.34;40.03;102383.06;5076169;28;6622;-50
2022/03/15 02:59:51;;;;;;;;;;;;;;;21.32;39.96;102377.91;5076023;28;4085;-50
2022/03/15 03:02:18;;;;;;;;;;;;;;;21.31;39.97;102387.94;5069021;28;4139;-53
2022/03/15 03:04:44;;;;;;;;;;;;;;;21.31;40.01;102390.81;5073742;27;4107;-49
2022/03/15 03:07:12;;;;;;;;;;;;;;;21.28;39.98;102374.00;5073274;28;4096;-51
2022/03/15 03:09:38;;;;;;;;;;;;;;;21.36;39.92;102379.56;5073969;28;4071;-51
2022/03/15 03:12:05;;;;;;;;;;;;;;;21.40;39.93;102386.38;5072665;28;4172;-49
2022/03/15 03:14:35;;;;;;;;;;;;;;;21.36;40.09;102385.31;5073324;28;4259;-49
2022/03/15 03:17:01;;;;;;;;;;;;;;;21.31;39.87;102387.94;5074140;28;4171;-50
2022/03/15 03:19:28;;;;;;;;;;;;;;;21.31;40.03;102385.06;5071698;28;4090;-54
2022/03/15 03:21:55;;;;;;;;;;;;;;;21.32;39.99;102389.44;5080871;28;4074;-53
2022/03/15 03:24:24;;;;;;;;;;;;;;;21.32;40.15;102385.78;5078874;28;4359;-51
2022/03/15 03:26:50;;;;;;;;;;;;;;;21.32;39.97;102391.56;5079260;28;4054;-51
2022/03/15 03:29:17;;;;;;;;;;;;;;;21.32;39.99;102392.31;5079135;28;4195;-50
2022/03/15 03:31:43;;;;;;;;;;;;;;;21.31;39.89;102390.81;5077159;28;4143;-50
2022/03/15 03:34:11;;;;;;;;;;;;;;;21.31;40.03;102396.56;5080323;28;5630;-49
2022/03/15 03:36:38;;;;;;;;;;;;;;;21.31;39.93;102402.34;5076416;28;4177;-50
2022/03/15 03:39:22;;;;;;;;;;;;;;;21.30;40.12;102400.84;5073624;28;4385;-50
2022/03/15 03:41:49;;;;;;;;;;;;;;;21.29;40.09;102393.56;5077471;28;4163;-51
2022/03/15 03:44:15;;;;;;;;;;;;;;;21.29;40.04;102399.31;5074705;28;4042;-52
2022/03/15 03:46:42;;;;;;;;;;;;;;;21.29;40.04;102399.31;5076186;28;4233;-52
2022/03/15 03:49:08;;;;;;;;;;;;;;;21.37;39.80;102407.75;5073544;28;4255;-49
2022/03/15 03:51:36;;;;;;;;;;;;;;;21.40;39.82;102405.78;5074076;28;4079;-51
2022/03/15 03:54:03;;;;;;;;;;;;;;;21.41;39.81;102407.31;5078546;28;4256;-49
2022/03/15 03:56:29;;;;;;;;;;;;;;;21.33;39.99;102404.63;5075261;28;4166;-48
2022/03/15 03:58:55;;;;;;;;;;;;;;;21.31;40.08;102399.47;5079055;28;4190;-51
2022/03/15 04:01:22;;;;;;;;;;;;;;;21.31;40.31;102396.56;5075212;28;4043;-51
2022/03/15 04:03:49;;;;;;;;;;;;;;;21.32;40.10;102391.56;5078885;28;4229;-50
2022/03/15 04:06:15;;;;;;;;;;;;;;;21.32;40.24;102397.31;5075868;28;4165;-51
2022/03/15 04:08:43;;;;;;;;;;;;;;;21.33;40.33;102395.97;5077398;28;4288;-51
2022/03/15 04:11:10;;;;;;;;;;;;;;;21.32;40.20;102397.31;5077238;28;4207;-50
2022/03/15 04:13:40;;;;;;;;;;;;;;;21.32;40.15;102385.78;5074197;28;4055;-49
2022/03/15 04:16:07;;;;;;;;;;;;;;;21.33;40.15;102393.84;5073144;28;4148;-50
2022/03/15 04:18:33;;;;;;;;;;;;;;;21.32;40.02;102397.31;5076881;28;4175;-50
2022/03/15 04:21:00;;;;;;;;;;;;;;;21.32;40.05;102395.19;5077907;28;4086;-54
2022/03/15 04:23:26;;;;;;;;;;;;;;;21.32;40.07;102398.06;5068154;28;4076;-50
2022/03/15 04:25:53;;;;;;;;;;;;;;;21.31;40.05;102410.97;5073167;28;4220;-50
2022/03/15 04:28:19;;;;;;;;;;;;;;;21.31;40.21;102402.34;5076395;28;4198;-50
2022/03/15 04:30:48;;;;;;;;;;;;;;;21.36;40.30;102396.84;5069362;28;4115;-50
2022/03/15 04:33:15;;;;;;;;;;;;;;;21.32;39.91;102403.84;5073105;28;5471;-53
2022/03/15 04:35:42;;;;;;;;;;;;;;;21.31;40.07;102407.34;5075862;28;4158;-52
2022/03/15 04:38:08;;;;;;;;;;;;;;;21.38;39.81;102402.75;5077962;28;4202;-48
2022/03/15 04:40:34;;;;;;;;;;;;;;;21.33;39.98;102402.47;5075972;28;4349;-52
2022/03/15 04:43:01;;;;;;;;;;;;;;;21.33;39.74;102396.72;5076670;28;4515;-48
2022/03/15 04:45:28;;;;;;;;;;;;;;;21.33;39.74;102393.84;5073853;28;4228;-48
2022/03/15 04:47:54;;;;;;;;;;;;;;;21.33;39.66;102387.31;5076485;28;4149;-52
2022/03/15 04:50:20;;;;;;;;;;;;;;;21.33;39.73;102393.84;5076000;28;4096;-50
2022/03/15 04:52:47;;;;;;;;;;;;;;;21.34;39.71;102383.81;5077085;28;5363;-50
2022/03/15 04:55:13;;;;;;;;;;;;;;;21.36;39.78;102391.09;5075512;28;5355;-51
2022/03/15 04:57:39;;;;;;;;;;;;;;;21.36;40.06;102385.31;5077924;28;4145;-50
2022/03/15 05:00:08;;;;;;;;;;;;;;;21.36;39.94;102388.22;5073760;28;4583;-49
2022/03/15 05:02:35;;;;;;;;;;;;;;;21.36;40.25;102391.09;5072280;28;4293;-51
2022/03/15 05:05:04;;;;;;;;;;;;;;;21.37;39.98;102387.56;5067700;28;4090;-49
2022/03/15 05:07:30;;;;;;;;;;;;;;;21.37;39.85;102386.81;5074689;28;4071;-52
2022/03/15 05:12:42;;;;;;;;;;;;;;;21.34;39.72;102389.56;5077989;28;4238;-48
2022/03/15 05:15:08;;;;;;;;;;;;;;;21.33;40.01;102390.19;5074708;28;5573;-49
2022/03/15 05:17:36;;;;;;;;;;;;;;;21.32;39.83;102392.31;5078127;28;4138;-50
2022/03/15 05:20:08;;;;;;;;;;;;;;;21.33;39.72;102390.94;5069852;28;4208;-50
2022/03/15 05:22:34;;;;;;;;;;;;;;;21.32;39.89;102386.53;5072474;28;4361;-51
2022/03/15 05:25:01;;;;;;;;;;;;;;;21.32;40.03;102383.66;5075635;28;4430;-49
2022/03/15 05:27:27;;;;;;;;;;;;;;;21.32;39.85;102392.31;5069776;28;4057;-49
2022/03/15 05:29:54;;;;;;;;;;;;;;;21.33;39.83;102387.31;5069992;28;4326;-51
2022/03/15 05:32:20;;;;;;;;;;;;;;;21.32;39.99;102395.19;5067914;28;4175;-50
2022/03/15 05:34:47;;;;;;;;;;;;;;;21.29;40.02;102387.03;5075265;28;5356;-52
2022/03/15 05:37:14;;;;;;;;;;;;;;;21.30;40.00;102395.09;5068106;28;4208;-48
2022/03/15 05:39:40;;;;;;;;;;;;;;;21.30;39.81;102386.44;5067813;28;4253;-50
2022/03/15 05:42:06;;;;;;;;;;;;;;;21.32;39.89;102386.53;5071756;28;5704;-49
2022/03/15 05:44:33;;;;;;;;;;;;;;;21.32;39.96;102386.53;5068758;28;4448;-49
2022/03/15 05:46:59;;;;;;;;;;;;;;;21.31;39.95;102385.06;5069943;28;4137;-49
2022/03/15 05:49:25;;;;;;;;;;;;;;;21.33;40.09;102384.44;5066291;27;4228;-49
2022/03/15 05:51:57;;;;;;;;;;;;;;;21.32;39.99;102386.53;5070894;28;4228;-52
2022/03/15 05:54:23;;;;;;;;;;;;;;;21.33;39.84;102388.06;5062552;28;4111;-48
2022/03/15 05:56:49;;;;;;;;;;;;;;;21.37;39.88;102392.59;5067055;28;4093;-72
2022/03/15 05:59:16;;;;;;;;;;;;;;;21.34;40.09;102383.06;5070602;28;6383;-75
2022/03/15 06:01:42;;;;;;;;;;;;;;;21.33;39.98;102393.84;5068794;28;4105;-71
2022/03/15 06:04:10;;;;;;;;;;;;;;;21.32;40.28;102386.53;5065932;28;4045;-73
2022/03/15 06:06:37;;;;;;;;;;;;;;;21.36;40.02;102391.09;5070504;28;4241;-74
2022/03/15 06:09:03;;;;;;;;;;;;;;;21.42;40.33;102389.41;5063314;28;5382;-74
2022/03/15 06:11:35;;;;;;;;;;;;;;;21.20;40.11;102394.38;5072831;28;4332;-75
2022/03/15 06:14:01;;;;;;;;;;;;;;;21.21;40.19;102393.03;5074053;28;4114;-75
2022/03/15 06:16:27;;;;;;;;;;;;;;;21.23;40.21;102396.03;5072827;28;4174;-74
2022/03/15 06:18:54;;;;;;;;;;;;;;;21.24;40.31;102396.78;5069165;28;4389;-74
2022/03/15 06:21:20;;;;;;;;;;;;;;;21.24;40.89;102391.78;5073763;28;4207;-77
2022/03/15 06:23:46;;;;;;;;;;;;;;;21.24;40.70;102388.91;5075414;28;4187;-74
2022/03/15 06:26:32;;;;;;;;;;;;;;;21.26;40.53;102394.06;5075612;28;4582;-73
2022/03/15 06:28:59;;;;;;;;;;;;;;;21.22;40.83;102388.75;5070348;28;4081;-71
2022/03/15 06:31:26;;;;;;;;;;;;;;;21.22;40.76;102383.00;5076120;28;4195;-71
2022/03/15 06:33:52;;;;;;;;;;;;;;;21.23;40.60;102380.88;5076915;28;4054;-72
2022/03/15 06:36:19;;;;;;;;;;;;;;;21.24;40.74;102386.03;5074487;28;4334;-76
2022/03/15 06:38:45;;;;;;;;;;;;;;;21.25;40.73;102389.66;5073951;28;4171;-73
2022/03/15 06:41:11;;;;;;;;;;;;;;;21.26;40.90;102391.19;5077063;28;5461;-62
2022/03/15 06:43:39;;;;;;;;;;;;;;;21.28;40.89;102389.19;5076447;28;4235;-70
2022/03/15 06:46:05;;;;;;;;;;;;;;;21.26;40.69;102386.16;5076820;28;4236;-69
2022/03/15 06:48:32;;;;;;;;;;;;;;;21.16;40.77;102390.47;5069385;28;4214;-72
2022/03/15 06:50:58;;;;;;;;;;;;;;;21.25;41.37;102393.28;5077519;28;4586;-70
2022/03/15 06:53:25;;;;;;;;;;;;;;;21.32;42.05;102398.06;5075050;28;4966;-64
2022/03/15 06:55:51;;;;;;;;;;;;;;;21.50;42.10;102392.81;5076047;28;4068;-67
2022/03/15 06:58:18;;;;;;;;;;;;;;;21.54;41.19;102392.31;5076626;28;4548;-66
2022/03/15 07:00:45;;;;;;;;;;;;;;;21.33;41.35;102393.84;5078095;28;4318;-66
2022/03/15 07:03:11;;;;;;;;;;;;;;;21.55;41.03;102402.47;5078162;28;4158;-63
2022/03/15 07:05:38;;;;;;;;;;;;;;;21.66;40.71;102401.75;5079067;28;4155;-64
2022/03/15 07:08:06;;;;;;;;;;;;;;;21.68;40.76;102404.78;5078275;28;4211;-65
2022/03/15 07:10:33;;;;;;;;;;;;;;;21.70;40.42;102402.03;5079873;28;4186;-64
2022/03/15 07:12:59;;;;;;;;;;;;;;;21.65;40.45;102408.91;5081334;28;4235;-65
2022/03/15 07:15:26;;;;;;;;;;;;;;;21.72;40.49;102405.06;5080423;28;5209;-64
2022/03/15 07:17:56;;;;;;;;;;;;;;;21.77;40.27;102405.31;5080275;28;4167;-62
2022/03/15 07:20:23;;;;;;;;;;;;;;;21.78;40.17;102403.94;5078411;28;4315;-67
2022/03/15 07:22:49;;;;;;;;;;;;;;;21.75;40.49;102400.91;5080998;28;4267;-68
2022/03/15 07:25:16;;;;;;;;;;;;;;;21.69;39.92;102394.78;5081897;28;4187;-68
2022/03/15 07:27:42;;;;;;;;;;;;;;;21.66;40.30;102401.75;5079760;28;4284;-70
2022/03/15 07:30:09;;;;;;;;;;;;;;;21.62;40.25;102401.50;5081068;28;5267;-69
2022/03/15 07:32:36;;;;;;;;;;;;;;;20.51;40.03;102411.28;5079123;28;4187;-69
2022/03/15 07:35:03;;;;;;;;;;;;;;;20.16;40.25;102408.06;5078529;28;4542;-66
2022/03/15 07:37:29;;;;;;;;;;;;;;;20.75;39.86;102414.38;5073092;28;4236;-65
2022/03/15 07:39:55;;;;;;;;;;;;;;;21.01;39.49;102400.28;5073756;28;4423;-66
2022/03/15 07:42:26;;;;;;;;;;;;;;;21.07;39.75;102403.56;5076192;28;4134;-65
2022/03/15 07:44:53;;;;;;;;;;;;;;;21.16;39.45;102402.75;5076682;28;4363;-65
2022/03/15 07:47:19;;;;;;;;;;;;;;;21.15;39.53;102406.25;5073208;28;4322;-65
2022/03/15 07:49:48;;;;;;;;;;;;;;;21.07;39.72;102406.44;5072581;28;4186;-64
2022/03/15 07:52:14;;;;;;;;;;;;;;;21.19;39.59;102409.41;5075057;28;4186;-64
2022/03/15 07:54:41;;;;;;;;;;;;;;;21.21;39.59;102407.44;5075541;28;4197;-65
2022/03/15 07:57:07;;;;;;;;;;;;;;;21.29;39.56;102401.44;5079198;28;4097;-65
2022/03/15 07:59:34;;;;;;;;;;;;;;;21.27;39.67;102399.19;5070880;28;4183;-66
2022/03/15 08:02:00;;;;;;;;;;;;;;;21.29;39.94;102399.31;5071098;28;4275;-70
2022/03/15 08:04:27;;;;;;;;;;;;;;;21.50;40.15;102401.44;5079167;28;4251;-65
2022/03/15 08:06:53;;;;;;;;;;;;;;;21.61;39.53;102391.34;5078211;28;4052;-66
2022/03/15 08:09:20;;;;;;;;;;;;;;;21.75;39.64;102392.25;5075020;28;4246;-68
2022/03/15 08:11:46;;;;;;;;;;;;;;;21.24;39.88;102385.28;5074305;28;4184;-71
2022/03/15 08:14:13;;;;;;;;;;;;;;;20.78;40.35;102390.13;5078353;28;4398;-66
2022/03/15 08:16:39;;;;;;;;;;;;;;;20.59;40.24;102393.09;5076119;28;4162;-62
2022/03/15 08:19:08;;;;;;;;;;;;;;;20.81;39.74;102386.00;5071897;28;4280;-59
2022/03/15 08:21:36;;;;;;;;;;;;;;;21.29;39.30;102393.56;5071296;28;4268;-59
2022/03/15 08:24:02;;;;;;;;;;;;;;;21.56;38.60;102386.69;5077917;28;4145;-60
2022/03/15 08:26:28;;;;;;;;;;;;;;;21.65;38.87;102382.22;5075267;28;4181;-59
2022/03/15 08:28:55;;;;;;;;;;;;;;;21.64;39.07;102384.31;5076570;28;4245;-59
2022/03/15 08:31:21;;;;;;;;;;;;;;;21.69;39.14;102377.47;5078934;28;5259;-60
2022/03/15 08:33:47;;;;;;;;;;;;;;;21.75;39.08;102386.50;5075685;28;4240;-60
2022/03/15 08:36:14;;;;;;;;;;;;;;;21.77;39.02;102382.25;5073492;28;5504;-60
2022/03/15 08:38:41;;;;;;;;;;;;;;;21.80;39.13;102378.13;5072381;28;4036;-60
2022/03/15 08:41:08;;;;;;;;;;;;;;;21.81;39.50;102376.75;5077761;28;4391;-61
2022/03/15 08:43:35;;;;;;;;;;;;;;;21.87;39.35;102374.25;5072682;28;5376;-60
2022/03/15 08:46:01;;;;;;;;;;;;;;;21.89;39.54;102371.50;5075894;28;4148;-60
2022/03/15 08:48:27;;;;;;;;;;;;;;;21.79;39.65;102373.75;5073954;28;4600;-62
2022/03/15 08:50:55;;;;;;;;;;;;;;;21.63;39.78;102379.94;5075301;28;4251;-61
2022/03/15 08:53:21;;;;;;;;;;;;;;;21.61;40.03;102371.16;5061898;28;4058;-60
2022/03/15 08:55:47;;;;;;;;;;;;;;;21.65;40.19;102365.66;5078587;28;4039;-61
2022/03/15 08:58:14;;;;;;;;;;;;;;;21.71;40.06;102360.28;5067296;28;5173;-60
2022/03/15 09:00:42;;;;;;;;;;;;;;;21.78;39.92;102369.34;5076773;28;4235;-59
2022/03/15 09:03:08;;;;;;;;;;;;;;;21.79;40.04;102356.44;5074076;28;4135;-61
2022/03/15 09:05:36;;;;;;;;;;;;;;;21.79;40.16;102360.06;5080653;28;4241;-61
2022/03/15 09:08:04;;;;;;;;;;;;;;;21.81;40.11;102356.56;5074650;28;4187;-62
2022/03/15 09:10:30;;;;;;;;;;;;;;;21.80;39.99;102350.03;5072187;28;4010;-61
2022/03/15 09:12:56;;;;;;;;;;;;;;;21.82;40.30;102361.69;5074749;28;4188;-58
2022/03/15 09:15:23;;;;;;;;;;;;;;;21.84;39.97;102358.19;5066380;28;4290;-55
2022/03/15 09:17:49;;;;;;;;;;;;;;;21.73;40.25;102354.66;5076850;28;4077;-61
2022/03/15 09:20:21;;;;;;;;;;;;;;;21.69;40.38;102354.41;5073087;28;4085;-61
2022/03/15 09:22:48;;;;;;;;;;;;;;;21.87;40.31;102345.41;5074559;28;4616;-61
2022/03/15 09:25:17;;;;;;;;;;;;;;;22.00;40.31;102353.47;5073938;28;4219;-63
2022/03/15 09:27:43;;;;;;;;;;;;;;;22.05;40.11;102355.22;5072286;28;4095;-63
2022/03/15 09:30:10;;;;;;;;;;;;;;;22.13;40.13;102341.31;5078103;28;5383;-62
2022/03/15 09:32:36;;;;;;;;;;;;;;;22.07;40.00;102343.81;5072841;28;5299;-61
2022/03/15 09:35:03;;;;;;;;;;;;;;;22.08;39.88;102347.44;5071799;28;4225;-61
2022/03/15 09:37:29;;;;;;;;;;;;;;;22.09;40.00;102349.72;5073548;28;5294;-62
2022/03/15 09:39:57;;;;;;;;;;;;;;;22.00;40.19;102339.03;5075911;28;4103;-61
2022/03/15 09:42:24;;;;;;;;;;;;;;;21.99;40.29;102337.53;5070876;28;5449;-61
2022/03/15 09:44:51;;;;;;;;;;;;;;;22.02;40.13;102332.66;5073813;28;4302;-62
2022/03/15 09:47:20;;;;;;;;;;;;;;;22.07;40.04;102335.16;5076980;28;4128;-62
2022/03/15 09:49:46;;;;;;;;;;;;;;;22.06;40.03;102339.44;5075529;28;4281;-60
2022/03/15 09:52:16;;;;;;;;;;;;;;;21.99;40.25;102337.53;5075246;28;4449;-60
2022/03/15 09:54:43;;;;;;;;;;;;;;;22.08;40.05;102333.03;5073683;28;4025;-63
2022/03/15 09:57:09;;;;;;;;;;;;;;;22.08;40.11;102339.56;5076911;28;5227;-66
2022/03/15 09:59:36;;;;;;;;;;;;;;;22.11;40.11;102329.66;5078961;28;4235;-66
2022/03/15 10:02:02;;;;;;;;;;;;;;;22.26;40.15;102334.19;5077866;28;5368;-64
2022/03/15 10:04:29;;;;;;;;;;;;;;;22.32;39.83;102330.94;5078244;28;4054;-65
2022/03/15 10:06:55;;;;;;;;;;;;;;;22.27;40.00;102334.97;5076852;28;4880;-64
2022/03/15 10:09:22;;;;;;;;;;;;;;;22.23;40.08;102340.47;5071163;28;4136;-62
2022/03/15 10:11:50;;;;;;;;;;;;;;;22.20;39.92;102330.91;5076781;28;4128;-62
2022/03/15 10:14:17;;;;;;;;;;;;;;;22.22;40.02;102330.28;5077210;28;5191;-64
2022/03/15 10:16:43;;;;;;;;;;;;;;;22.15;39.79;102327.03;5076501;28;4227;-64
2022/03/15 10:19:13;;;;;;;;;;;;;;;22.21;40.02;102320.13;5076229;28;4382;-67
2022/03/15 10:21:49;;;;;;;;;;;;;;;22.22;39.82;102318.75;5075954;28;4055;-67
2022/03/15 10:24:20;;;;;;;;;;;;;;;22.21;40.03;102312.22;5075711;28;4152;-68
2022/03/15 10:26:47;;;;;;;;;;;;;;;22.15;40.10;102309.72;5080222;28;4239;-66
2022/03/15 10:29:14;;;;;;;;;;;;;;;22.23;40.00;102305.84;5079629;28;4191;-64
2022/03/15 10:31:40;;;;;;;;;;;;;;;22.21;40.07;102302.81;5068852;28;4190;-63
2022/03/15 10:34:07;;;;;;;;;;;;;;;22.17;39.92;102304.06;5080798;28;4244;-63
2022/03/15 10:36:40;;;;;;;;;;;;;;;22.26;39.97;102305.31;5074716;28;4205;-63
2022/03/15 10:39:06;;;;;;;;;;;;;;;22.18;40.11;102296.16;5072868;28;4335;-64
2022/03/15 10:41:50;;;;;;;;;;;;;;;22.16;40.05;102302.53;5076522;28;4254;-63
2022/03/15 10:44:17;;;;;;;;;;;;;;;22.14;40.12;102295.91;5080047;28;4208;-63
2022/03/15 10:46:44;;;;;;;;;;;;;;;22.20;40.09;102295.53;5080377;28;4090;-67
2022/03/15 10:49:12;;;;;;;;;;;;;;;22.18;39.94;102296.16;5078915;28;4488;-64
2022/03/15 10:51:38;;;;;;;;;;;;;;;21.92;40.34;102290.25;5078980;28;4282;-64
2022/03/15 10:54:05;;;;;;;;;;;;;;;21.81;40.51;102290.25;5078115;28;4550;-64
2022/03/15 10:56:31;;;;;;;;;;;;;;;21.76;40.55;102283.44;5079792;28;4445;-65
2022/03/15 10:59:04;;;;;;;;;;;;;;;21.77;40.69;102278.44;5076282;28;4059;-65
2022/03/15 11:01:37;;;;;;;;;;;;;;;21.74;40.53;102275.44;5081613;28;4069;-64
2022/03/15 11:04:06;;;;;;;;;;;;;;;21.80;40.59;102271.44;5079549;28;4101;-61
2022/03/15 11:06:37;;;;;;;;;;;;;;;21.88;40.51;102269.81;5080750;28;5196;-61
2022/03/15 11:09:16;;;;;;;;;;;;;;;22.00;40.64;102269.06;5077358;28;4368;-61
2022/03/15 11:11:44;;;;;;;;;;;;;;;22.11;40.55;102274.09;5078192;28;4536;-61
2022/03/15 11:14:10;;;;;;;;;;;;;;;22.12;40.83;102273.44;5079904;28;4424;-64
2022/03/15 11:16:37;;;;;;;;;;;;;;;22.10;40.31;102275.44;5083913;28;4188;-62
2022/03/15 11:19:04;;;;;;;;;;;;;;;22.16;40.20;102267.94;5075720;28;5499;-62
2022/03/15 11:21:31;;;;;;;;;;;;;;;21.97;40.31;102279.72;5077104;28;4096;-62
2022/03/15 11:23:58;;;;;;;;;;;;;;;21.88;40.42;102277.72;5081301;28;4477;-62
2022/03/15 11:26:24;;;;;;;;;;;;;;;21.87;40.29;102273.31;5085968;28;4050;-62
2022/03/15 11:28:51;;;;;;;;;;;;;;;21.83;40.56;102261.50;5074164;28;5162;-64
2022/03/15 11:31:18;;;;;;;;;;;;;;;21.32;40.51;102256.88;5079070;28;4243;-60
2022/03/15 11:33:47;;;;;;;;;;;;;;;21.58;39.71;102251.34;5073455;28;4192;-58
2022/03/15 11:36:13;;;;;;;;;;;;;;;21.72;39.25;102255.13;5080285;28;5634;-58
2022/03/15 11:38:40;;;;;;;;;;;;;;;21.81;39.80;102253.50;5091300;28;4267;-58
2022/03/15 11:41:09;;;;;;;;;;;;;;;21.84;40.03;102245.72;5077423;28;4341;-59
2022/03/15 11:43:40;;;;;;;;;;;;;;;21.84;40.16;102242.84;5078650;28;4092;-59
2022/03/15 11:46:10;;;;;;;;;;;;;;;21.89;40.20;102235.94;5079333;28;4300;-60
2022/03/15 11:48:47;;;;;;;;;;;;;;;21.87;40.16;102232.94;5078550;28;4135;-62
2022/03/15 11:51:33;;;;;;;;;;;;;;;21.91;40.32;102224.53;5074187;28;4055;-61
2022/03/15 11:54:04;;;;;;;;;;;;;;;21.97;40.44;102227.81;5074123;28;4062;-61
2022/03/15 11:56:49;;;;;;;;;;;;;;;22.07;40.31;102208.22;5076981;28;4142;-61
2022/03/15 11:59:16;;;;;;;;;;;;;;;22.11;39.94;102201.97;5077215;28;4171;-66
2022/03/15 12:01:48;;;;;;;;;;;;;;;22.11;40.12;102196.94;5087539;28;4000;-68
2022/03/15 12:04:16;;;;;;;;;;;;;;;22.15;40.08;102197.19;5085715;28;4273;-66
2022/03/15 12:06:50;;;;;;;;;;;;;;;22.16;40.03;102187.13;5080161;28;4222;-64
2022/03/15 12:09:19;;;;;;;;;;;;;;;22.18;40.17;102190.16;5075205;27;4235;-63
2022/03/15 12:11:46;;;;;;;;;;;;;;;22.27;39.92;102187.78;5077329;28;4245;-65
2022/03/15 12:14:17;;;;;;;;;;;;;;;22.23;39.92;102185.41;5076136;28;4419;-67
2022/03/15 12:16:48;;;;;;;;;;;;;;;21.88;40.29;102179.66;5077592;28;4483;-67
2022/03/15 12:19:30;;;;;;;;;;;;;;;21.78;40.05;102179.03;5078967;28;4207;-62
2022/03/15 12:21:58;;;;;;;;;;;;;;;22.04;40.01;102177.00;5077107;28;4229;-64
2022/03/15 12:24:28;;;;;;;;;;;;;;;22.20;39.68;102163.56;5076019;28;4067;-62
2022/03/15 12:26:58;;;;;;;;;;;;;;;22.29;40.03;102161.94;5075568;28;4181;-63
2022/03/15 12:29:26;;;;;;;;;;;;;;;22.31;40.04;102150.50;5072499;28;4067;-61
2022/03/15 12:31:54;;;;;;;;;;;;;;;22.31;39.96;102151.25;5075493;28;5598;-62
2022/03/15 12:34:20;;;;;;;;;;;;;;;22.38;39.88;102144.47;5075908;28;4177;-61
2022/03/15 12:36:51;;;;;;;;;;;;;;;22.36;39.69;102140.72;5076292;28;5101;-63
2022/03/15 12:39:18;;;;;;;;;;;;;;;22.37;39.81;102136.44;5075548;28;4554;-63
2022/03/15 12:41:48;;;;;;;;;;;;;;;22.36;39.55;102134.94;5079894;28;4209;-63
2022/03/15 12:44:14;;;;;;;;;;;;;;;22.06;39.75;102131.72;5076942;28;4181;-62
2022/03/15 12:46:41;;;;;;;;;;;;;;;21.97;40.31;102126.84;5075663;28;4176;-62
2022/03/15 12:49:08;;;;;;;;;;;;;;;21.95;40.07;102127.47;5073403;28;5229;-65
2022/03/15 12:51:38;;;;;;;;;;;;;;;21.95;40.42;102120.97;5071508;28;4400;-63